Du har inga inställningar för hoppväder.nu

Hoppväder.nu

Senast uppdaterat 03:47

UTC-tid

2018-04-26 kl. 01:47


Sol och måne

Solen går upp 5:26 och går ner 20:46 (beräknade cirkatider)
Nästa fullmåne blir om 4 dagar (2018-04-30)

METAR

ESGG (Landvetter)
(27 minuter sedan)
ESGG 260120Z 24008KT 220V280 9999 BKN007 05/03 Q1002=



ESGP (Säve)
ESGP NIL=



ESIB (Såtenäs)
(27 minuter sedan)
ESIB 260120Z AUTO 23014KT 9999 SCT082/// 06/05 Q0999=



ESGT (Trollhättan/Vänersborg)
ESGT NIL=






TAF

ESGG (Landvetter)
(1577 minuter sedan)
ESGG 252330Z 2600/2624 24010KT 9999 BKN008 PROB40 2600/2605 BKN004 BECMG 2607/2609 BKN012 BECMG 2609/2611 BKN020 TEMPO 2613/2618 SHRA BKN030CB PROB40 2618/2624 BKN009=



ESGP (Säve)
ESGP



ESIB (Såtenäs)
(347 minuter sedan)
ESIB 252000Z NIL=



ESGT (Trollhättan/Vänersborg)
(347 minuter sedan)
ESGT 252000Z NIL=





Kodnycklar till TAF och METAR






LHP

(Vårgårda är område I4c i Norra delen)

Prognos är inte uppdaterad




Spotting

Hur fungerar spotthjälpen och Vindkartan?

Markvind är ca 0 m/s.



Vindkartan

Senast uppdaterad 03:47



All data kommer från LFV.se